• Join FlightAware (Why Join?)
  • Login
  • US Flag 
07:34PM EST


 

Airport Tracker/Info


-or-


 

Live Flight TrackerFlight Track Log ✈ PDT4207 ✈ 01-Nov-2013 ✈ KPHL - KBGM

Flight Track Log - Related Links

Times and Time Zones

All times are in EDT time to prevent confusion due to time zone crossing. See the PDT4207 flight status page for this flight to view local times or setup timezone preferences in your user account.

Time Position Orientation Groundspeed Altitude Reporting Facility
EDT Latitude Longitude Course Direction KTS MPH feet Rate Location/Type
09:37PM 39.9000 -75.2333 351° North 128 147 400  Level Philadelphia TRACON
09:38PM 39.9500 -75.2500 346° North 171 197 2,200 1,440 Climbing Philadelphia TRACON
09:39PM 39.9833 -75.2667 339° North 160 184 3,500 900 Climbing Philadelphia TRACON
09:40PM 40.0723 -75.3020 349° North  Level Estimated
09:40PM 40.0333 -75.2833 346° North 208 239 4,000  Level Philadelphia TRACON
09:41PM 40.1399 -75.3165 351° North  Level FlightAware Approximate
09:42PM 40.2074 -75.3310 351° North  Level FlightAware Approximate
09:42PM 40.1091 -75.2879 339° North  Level FlightAware Approximate
09:49PM 40.5782 -75.4153 349° North  Level FlightAware Approximate
09:50PM 40.6455 -75.4321 349° North  Level FlightAware Approximate
09:51PM 40.7127 -75.4490 349° North  Level FlightAware Approximate
09:52PM 40.7811 -75.4500 North  Level FlightAware Approximate
09:53PM 40.8496 -75.4500 North  Level FlightAware Approximate
09:54PM 40.9181 -75.4500 North  Level FlightAware Approximate
09:55PM 40.9866 -75.4500 North  Level FlightAware Approximate
09:56PM 41.0550 -75.4517 357° North  Level FlightAware Approximate
09:57PM 41.1234 -75.4569 357° North  Level FlightAware Approximate
09:58PM 41.1918 -75.4622 357° North  Level FlightAware Approximate
09:59PM 41.2602 -75.4667 North  Level FlightAware Approximate
10:00PM 41.3287 -75.4667 North  Level FlightAware Approximate
10:01PM 41.3971 -75.4667 North  Level FlightAware Approximate
10:02PM 41.4656 -75.4667 North  Level FlightAware Approximate
10:03PM 41.5207 -75.5205 323° Northwest  Level FlightAware Approximate
10:04PM 41.5756 -75.5753 323° Northwest  Level FlightAware Approximate
10:05PM 41.6304 -75.6302 323° Northwest  Level FlightAware Approximate
10:06PM 41.6852 -75.6851 323° Northwest  Level FlightAware Approximate
10:07PM 41.7407 -75.7388 326° Northwest  Level FlightAware Approximate
10:08PM 41.7972 -75.7908 326° Northwest  Level FlightAware Approximate
10:09PM 41.8536 -75.8429 325° Northwest  Level FlightAware Approximate
10:10PM 41.9100 -75.8951 325° Northwest  Level FlightAware Approximate
10:11PM 41.9655 -75.9489 323° Northwest  Level FlightAware Approximate
10:12PM 42.0205 -76.0038 323° Northwest  Level FlightAware Approximate
10:13PM 42.0755 -76.0588 323° Northwest  Level FlightAware Approximate
10:14PM 42.1305 -76.1138 323° Northwest  Level FlightAware Approximate
10:15PM 42.1656 -76.0844 37° Northeast  Level FlightAware Approximate
10:16PM 42.1986 -76.0035 62° Northeast  Level FlightAware Approximate
10:17PM 42.2000 -75.9667 90° East  Level FlightAware Approximate